Portada
METAR-TAF:

METAR-TAF

Aeroports :

McKinley Park, Alaska, Estats Units d'Amèrica

latitud: 63-44N, longitud: 148-55W, altitud: 524 m

Observació

L'informe es va fer fa 1 hora i 5 minuts, a les 23:56 UTC
Vent 4 kt amb direcció variable
Temperatura 6°C
Humitat 39%
Pressió 990 hPa
Visibilitat: 16.1 km
Cel cobert a una alçada de 7000 ft

METAR: PAIN 212356Z VRB04KT 10SM OVC070 06/M07 A2922 RMK AO2 SLP921 T00611067 10061 21017 58021

Hora: 17:01 (01:01 UTC)


TAF: manca

Observacions i pronòstics meteorològics de més de 4000 aeroports (METAR i TAF).

Les estacions disponibles són els punts grocs i vermells al mapa.

Posi el ratolí al punt desitjat per veure el nom de l'estació.

Feu clic per veure les observacions i els pronòstics meteorològics.

Per canviar el mapa: feu clic els botons verds amb una creu de color negre per apropar; al botó verd amb un guió per allunyar la imatge; o en les fletxes verdes per a mapes adjacents.


METAR-TAF: